createdAt,value
2022-10-30T00:08:27.074Z,13.40
2022-10-30T00:13:22.195Z,13.40
2022-10-30T00:15:54.041Z,13.30
2022-10-30T00:21:07.501Z,13.30
2022-10-30T00:26:06.660Z,13.40
2022-10-30T00:31:02.616Z,13.20
2022-10-30T00:33:30.493Z,13.30
2022-10-30T00:38:26.209Z,13.30
2022-10-30T00:43:40.125Z,13.20
2022-10-30T00:46:24.197Z,13.20
2022-10-30T00:49:23.081Z,13.30
2022-10-30T00:51:54.457Z,13.10
2022-10-30T00:54:22.457Z,13.20
2022-10-30T00:56:51.897Z,13.00
2022-10-30T00:59:26.091Z,13.30
2022-10-30T01:01:54.159Z,13.30
2022-10-30T01:04:25.895Z,13.20
2022-10-30T01:06:58.297Z,13.20
2022-10-30T01:14:21.612Z,13.10
2022-10-30T01:17:06.583Z,13.20
2022-10-30T01:25:28.434Z,13.20
2022-10-30T01:28:20.951Z,13.10
2022-10-30T01:31:25.552Z,13.20
2022-10-30T01:36:32.418Z,13.20
2022-10-30T01:39:21.320Z,13.10
2022-10-30T01:41:48.381Z,13.10
2022-10-30T01:44:33.108Z,13.00
2022-10-30T01:47:28.717Z,13.10
2022-10-30T01:50:37.545Z,13.10
2022-10-30T01:53:25.761Z,13.00
2022-10-30T01:56:01.343Z,13.10
2022-10-30T01:58:41.858Z,13.00
2022-10-30T02:01:08.982Z,13.10
2022-10-30T02:03:36.725Z,13.00
2022-10-30T02:06:04.175Z,13.00
2022-10-30T02:10:59.475Z,12.80
2022-10-30T02:13:38.332Z,13.10
2022-10-30T02:16:06.159Z,13.00
2022-10-30T02:23:29.724Z,13.20
2022-10-30T02:28:24.308Z,13.10
2022-10-30T02:43:10.064Z,13.10
2022-10-30T02:53:00.121Z,13.10
2022-10-30T03:02:56.184Z,13.10
2022-10-30T03:12:43.302Z,12.90
2022-10-30T03:15:11.103Z,11.90
2022-10-30T03:20:06.117Z,12.90
2022-10-30T03:34:54.331Z,12.80
2022-10-30T04:00:06.944Z,13.00
2022-10-30T04:02:51.370Z,12.80
2022-10-30T04:05:20.883Z,12.80
2022-10-30T04:07:49.245Z,12.70
2022-10-30T04:12:52.843Z,12.90
2022-10-30T04:17:51.684Z,12.80
2022-10-30T04:20:19.894Z,12.70
2022-10-30T04:22:46.985Z,12.70
2022-10-30T04:32:49.829Z,12.60
2022-10-30T04:35:19.923Z,12.70
2022-10-30T04:38:04.643Z,12.70
2022-10-30T04:40:36.956Z,12.70
2022-10-30T04:43:07.288Z,13.00
2022-10-30T04:45:35.206Z,12.60
2022-10-30T04:48:06.882Z,12.50
2022-10-30T04:50:34.363Z,12.60
2022-10-30T04:53:07.175Z,12.60
2022-10-30T05:03:20.221Z,12.60
2022-10-30T05:05:55.504Z,12.20
2022-10-30T05:30:41.740Z,12.00
2022-10-30T05:38:16.113Z,11.60
2022-10-30T05:40:46.465Z,11.50
2022-10-30T05:45:41.286Z,11.50
2022-10-30T06:21:23.514Z,11.00
2022-10-30T06:41:42.070Z,11.00
2022-10-30T06:44:32.720Z,11.10
2022-10-30T07:00:07.521Z,11.50
2022-10-30T07:03:02.728Z,11.50
2022-10-30T07:15:59.684Z,11.90
2022-10-30T07:21:01.671Z,12.20
2022-10-30T07:40:11.637Z,12.60
2022-10-30T07:42:57.787Z,12.70
2022-10-30T07:53:44.602Z,13.10
2022-10-30T07:56:11.939Z,13.00
2022-10-30T08:14:34.519Z,13.00
2022-10-30T08:19:29.481Z,13.10
2022-10-30T08:24:27.597Z,13.50
2022-10-30T08:34:24.056Z,14.00
2022-10-30T08:42:14.524Z,14.90
2022-10-30T08:57:37.589Z,15.00
2022-10-30T09:00:05.982Z,15.30
2022-10-30T09:05:40.564Z,15.70
2022-10-30T09:11:03.614Z,16.30
2022-10-30T09:16:02.906Z,16.50
2022-10-30T09:37:07.224Z,18.90
2022-10-30T09:42:36.497Z,18.10
2022-10-30T09:45:29.820Z,18.30
2022-10-30T09:48:01.670Z,17.90
2022-10-30T09:51:12.886Z,18.60
2022-10-30T09:54:02.119Z,18.80
2022-10-30T09:56:56.694Z,18.90
2022-10-30T09:59:51.484Z,19.10
2022-10-30T10:04:52.494Z,19.10
2022-10-30T10:07:50.022Z,19.30
2022-10-30T10:10:39.994Z,19.70
2022-10-30T10:13:17.738Z,19.50
2022-10-30T10:15:51.934Z,19.60
2022-10-30T10:18:26.125Z,19.60
2022-10-30T10:20:58.292Z,19.80
2022-10-30T10:23:44.648Z,19.90
2022-10-30T10:26:29.256Z,20.10
2022-10-30T10:29:27.875Z,20.10
2022-10-30T10:34:40.222Z,20.20
2022-10-30T10:37:41.892Z,20.30
2022-10-30T10:40:27.501Z,20.40
2022-10-30T10:43:03.870Z,20.50
2022-10-30T10:45:50.626Z,23.00
2022-10-30T10:51:17.547Z,20.50
2022-10-30T10:53:57.218Z,20.50
2022-10-30T10:56:34.816Z,20.60
2022-10-30T10:59:05.243Z,20.80
2022-10-30T11:01:46.119Z,20.80
2022-10-30T11:04:40.546Z,20.90
2022-10-30T11:07:23.984Z,20.70
2022-10-30T11:09:56.309Z,20.90
2022-10-30T11:12:33.761Z,21.00
2022-10-30T11:15:18.429Z,20.80
2022-10-30T11:17:57.933Z,21.00
2022-10-30T11:20:42.863Z,21.10
2022-10-30T11:23:34.511Z,21.40
2022-10-30T11:26:02.602Z,21.40
2022-10-30T11:28:38.926Z,21.40
2022-10-30T11:31:34.862Z,21.30
2022-10-30T11:34:18.184Z,21.40
2022-10-30T11:36:53.001Z,21.60
2022-10-30T11:39:25.983Z,21.20
2022-10-30T11:42:00.834Z,21.70
2022-10-30T11:44:38.880Z,21.80
2022-10-30T11:47:07.500Z,21.80
2022-10-30T11:49:40.983Z,21.70
2022-10-30T11:52:09.117Z,21.50
2022-10-30T11:54:41.839Z,21.50
2022-10-30T11:57:30.100Z,21.70
2022-10-30T12:00:03.791Z,22.20
2022-10-30T12:02:44.103Z,21.80
2022-10-30T12:05:37.718Z,21.70
2022-10-30T12:08:07.785Z,21.80
2022-10-30T12:11:02.657Z,21.90
2022-10-30T12:13:38.518Z,22.20
2022-10-30T12:16:09.637Z,23.80
2022-10-30T12:18:37.226Z,22.10
2022-10-30T12:21:04.823Z,22.00
2022-10-30T12:23:33.453Z,22.00
2022-10-30T12:26:08.694Z,22.00
2022-10-30T12:28:36.263Z,22.00
2022-10-30T12:31:23.464Z,21.90
2022-10-30T12:36:54.663Z,21.80
2022-10-30T12:39:49.765Z,22.30
2022-10-30T12:42:18.678Z,22.00
2022-10-30T12:47:21.899Z,21.90
2022-10-30T12:49:52.841Z,21.90
2022-10-30T12:52:27.765Z,22.00
2022-10-30T12:55:16.010Z,22.20
2022-10-30T12:57:47.934Z,21.90
2022-10-30T13:00:16.842Z,22.00
2022-10-30T13:03:04.087Z,22.30
2022-10-30T13:05:47.178Z,22.20
2022-10-30T13:08:37.066Z,22.20
2022-10-30T13:11:41.034Z,22.20
2022-10-30T13:14:17.356Z,22.10
2022-10-30T13:19:13.336Z,21.90
2022-10-30T13:22:11.539Z,21.60
2022-10-30T13:24:59.244Z,21.80
2022-10-30T13:27:48.454Z,21.70
2022-10-30T13:30:23.379Z,21.80
2022-10-30T13:33:11.272Z,21.80
2022-10-30T13:35:44.427Z,21.70
2022-10-30T13:38:26.246Z,21.90
2022-10-30T13:41:09.075Z,21.60
2022-10-30T13:43:57.651Z,21.70
2022-10-30T13:46:41.683Z,21.70
2022-10-30T13:49:18.731Z,22.00
2022-10-30T13:52:13.263Z,21.80
2022-10-30T13:54:59.277Z,22.00
2022-10-30T13:57:32.111Z,21.90
2022-10-30T14:00:08.915Z,21.80
2022-10-30T14:03:10.883Z,22.00
2022-10-30T14:05:49.371Z,21.90
2022-10-30T14:08:21.830Z,21.90
2022-10-30T14:10:54.631Z,21.80
2022-10-30T14:13:43.734Z,21.80
2022-10-30T14:16:46.452Z,22.00
2022-10-30T14:19:14.945Z,22.00
2022-10-30T14:21:51.895Z,22.10
2022-10-30T14:24:44.585Z,21.80
2022-10-30T14:29:45.657Z,21.70
2022-10-30T14:32:15.496Z,21.70
2022-10-30T14:34:46.583Z,21.50
2022-10-30T14:39:45.801Z,21.40
2022-10-30T14:42:25.027Z,21.30
2022-10-30T14:45:45.842Z,21.10
2022-10-30T14:48:45.459Z,21.00
2022-10-30T14:51:16.473Z,20.90
2022-10-30T14:53:52.180Z,20.70
2022-10-30T14:59:15.034Z,20.30
2022-10-30T15:01:59.794Z,20.30
2022-10-30T15:04:58.095Z,20.00
2022-10-30T15:08:00.223Z,20.00
2022-10-30T15:10:36.359Z,19.90
2022-10-30T15:13:20.022Z,19.70
2022-10-30T15:16:01.143Z,19.60
2022-10-30T15:21:04.847Z,19.30
2022-10-30T15:23:35.573Z,19.20
2022-10-30T15:26:09.785Z,19.00
2022-10-30T15:28:38.746Z,18.90
2022-10-30T15:31:08.297Z,18.80
2022-10-30T15:33:38.309Z,18.60
2022-10-30T15:36:06.115Z,17.90
2022-10-30T15:38:33.016Z,18.40
2022-10-30T15:41:03.021Z,18.10
2022-10-30T15:43:33.617Z,18.00
2022-10-30T15:48:33.595Z,17.80
2022-10-30T15:53:46.904Z,17.40
2022-10-30T15:56:20.043Z,17.20
2022-10-30T15:58:54.312Z,17.10
2022-10-30T16:01:32.496Z,17.00
2022-10-30T16:06:31.566Z,16.70
2022-10-30T16:11:27.235Z,16.60
2022-10-30T16:16:28.842Z,16.40
2022-10-30T16:19:01.316Z,16.30
2022-10-30T16:21:32.035Z,16.20
2022-10-30T16:24:01.581Z,15.70
2022-10-30T16:26:32.870Z,16.00
2022-10-30T16:29:18.460Z,15.70
2022-10-30T16:31:50.089Z,15.80
2022-10-30T16:34:23.301Z,15.70
2022-10-30T16:36:51.235Z,15.30
2022-10-30T16:47:01.866Z,15.30
2022-10-30T16:49:34.568Z,15.20
2022-10-30T16:52:07.235Z,15.10
2022-10-30T16:54:39.643Z,15.10
2022-10-30T16:57:36.224Z,15.30
2022-10-30T17:00:05.705Z,15.00
2022-10-30T17:02:36.831Z,14.80
2022-10-30T17:05:22.968Z,14.90
2022-10-30T17:07:58.506Z,14.80
2022-10-30T17:10:48.662Z,14.90
2022-10-30T17:13:32.434Z,14.70
2022-10-30T17:16:24.904Z,14.60
2022-10-30T17:18:57.676Z,14.50
2022-10-30T17:21:39.996Z,14.50
2022-10-30T17:26:39.165Z,14.30
2022-10-30T17:31:36.479Z,14.20
2022-10-30T17:34:12.419Z,14.20
2022-10-30T17:39:07.583Z,14.20
2022-10-30T17:41:35.065Z,14.10
2022-10-30T17:44:02.266Z,14.10
2022-10-30T17:48:59.088Z,14.00
2022-10-30T17:51:26.616Z,14.00
2022-10-30T17:56:22.958Z,13.80
2022-10-30T18:01:20.244Z,13.70
2022-10-30T18:03:48.342Z,13.70
2022-10-30T18:06:20.640Z,13.60
2022-10-30T18:08:50.671Z,13.60
2022-10-30T18:11:20.652Z,13.60
2022-10-30T18:16:17.436Z,13.40
2022-10-30T18:18:45.420Z,13.40
2022-10-30T18:21:14.565Z,13.40
2022-10-30T18:26:26.994Z,13.10
2022-10-30T18:31:24.460Z,13.50
2022-10-30T18:33:51.739Z,13.60
2022-10-30T18:36:21.489Z,13.50
2022-10-30T18:41:19.361Z,13.60
2022-10-30T18:51:18.303Z,13.30
2022-10-30T18:56:28.601Z,13.10
2022-10-30T18:59:00.482Z,13.20
2022-10-30T19:13:54.009Z,12.90
2022-10-30T19:16:24.338Z,12.90
2022-10-30T19:21:24.660Z,12.80
2022-10-30T19:31:15.205Z,12.90
2022-10-30T19:36:33.819Z,12.80
2022-10-30T20:06:13.102Z,12.90
2022-10-30T20:18:33.719Z,12.80
2022-10-30T20:21:03.467Z,12.80
2022-10-30T20:26:21.233Z,12.80
2022-10-30T20:36:13.752Z,13.40
2022-10-30T20:41:20.044Z,13.50
2022-10-30T20:51:11.209Z,13.70
2022-10-30T21:06:01.842Z,13.20
2022-10-30T21:08:33.565Z,13.30
2022-10-30T21:11:02.014Z,13.40
2022-10-30T21:13:29.433Z,13.40
2022-10-30T21:16:01.238Z,13.40
2022-10-30T21:21:06.349Z,13.40
2022-10-30T21:26:06.092Z,13.30
2022-10-30T21:31:05.771Z,13.40
2022-10-30T21:33:34.634Z,13.80
2022-10-30T21:36:13.175Z,13.70
2022-10-30T21:38:42.015Z,13.80
2022-10-30T21:41:11.292Z,13.90
2022-10-30T21:46:10.896Z,14.00
2022-10-30T21:48:40.684Z,14.10
2022-10-30T21:51:13.401Z,14.00
2022-10-30T21:56:13.710Z,13.40
2022-10-30T21:58:42.057Z,14.10
2022-10-30T22:01:15.516Z,14.20
2022-10-30T22:06:14.350Z,14.20
2022-10-30T22:11:10.677Z,14.10
2022-10-30T22:13:38.448Z,14.10
2022-10-30T22:16:07.509Z,14.30
2022-10-30T22:18:35.068Z,14.10
2022-10-30T22:21:06.144Z,12.90
2022-10-30T22:23:34.348Z,14.10
2022-10-30T22:26:04.187Z,14.00
2022-10-30T22:28:32.600Z,14.00
2022-10-30T22:31:07.335Z,14.00
2022-10-30T22:36:04.226Z,13.90
2022-10-30T22:41:17.350Z,13.80
2022-10-30T22:43:45.838Z,13.80
2022-10-30T22:46:13.616Z,13.70
2022-10-30T22:51:15.094Z,13.60
2022-10-30T22:53:45.156Z,13.60
2022-10-30T22:56:17.670Z,13.60
2022-10-30T22:58:46.010Z,13.60
2022-10-30T23:01:24.612Z,13.60
2022-10-30T23:03:54.454Z,13.60
2022-10-30T23:08:49.434Z,13.90
2022-10-30T23:13:45.311Z,13.50
2022-10-30T23:16:15.809Z,13.60
2022-10-30T23:18:44.023Z,13.50
2022-10-30T23:21:14.502Z,13.40
2022-10-30T23:23:42.412Z,13.50
2022-10-30T23:26:12.914Z,13.50
2022-10-30T23:31:09.009Z,13.40
2022-10-30T23:36:04.490Z,13.30
2022-10-30T23:45:53.284Z,12.90
2022-10-30T23:55:52.981Z,12.50
2022-10-30T23:58:20.824Z,12.50
